Time;durP1;ratioP1;P1;durP2;ratioP2;P2;SDS_P1;SDS_P2;PMS_P1;PMS_P2;Temp;Humidity;BMP_temperature;BMP_pressure;BME280_temperature;BME280_humidity;BME280_pressure;Samples;Min_cycle;Max_cycle;Signal;HPM_P1;HPM_P2
2023/09/16 00:01:10;;;;;;;478.47;212.43;;;;;;;;;;4946608;28;20214;-54
2023/09/16 00:03:36;;;;;;;544.47;245.27;;;;;;;;;;4945637;28;22354;-54
2023/09/16 00:06:04;;;;;;;533.03;238.60;;;;;;;;;;4955157;28;20316;-54
2023/09/16 00:08:30;;;;;;;509.40;231.63;;;;;;;;;;4949530;28;20221;-54
2023/09/16 00:10:56;;;;;;;606.00;283.57;;;;;;;;;;4937931;28;20654;-54
2023/09/16 00:13:22;;;;;;;537.23;243.23;;;;;;;;;;4951240;28;20210;-54
2023/09/16 00:15:48;;;;;;;480.33;211.63;;;;;;;;;;4954257;28;20194;-54
2023/09/16 00:18:17;;;;;;;499.07;223.57;;;;;;;;;;4954139;28;21714;-54
2023/09/16 00:20:43;;;;;;;486.03;217.73;;;;;;;;;;4956234;28;20222;-54
2023/09/16 00:23:10;;;;;;;578.90;264.27;;;;;;;;;;4951836;28;20234;-54
2023/09/16 00:25:36;;;;;;;567.43;265.77;;;;;;;;;;4950490;28;20557;-54
2023/09/16 00:28:06;;;;;;;530.93;236.60;;;;;;;;;;4946569;28;22257;-54
2023/09/16 00:30:32;;;;;;;496.47;214.80;;;;;;;;;;4954000;28;20273;-54
2023/09/16 00:32:58;;;;;;;576.67;264.40;;;;;;;;;;4950779;28;20551;-54
2023/09/16 00:35:23;;;;;;;492.97;210.97;;;;;;;;;;4955892;28;20214;-54
2023/09/16 00:37:49;;;;;;;540.10;245.30;;;;;;;;;;4958840;28;21559;-54
2023/09/16 00:40:16;;;;;;;480.93;209.80;;;;;;;;;;4948103;28;20257;-54
2023/09/16 00:42:42;;;;;;;505.17;224.93;;;;;;;;;;4944458;28;20194;-53
2023/09/16 00:45:10;;;;;;;542.87;246.60;;;;;;;;;;4955157;28;20516;-54
2023/09/16 00:47:36;;;;;;;519.80;231.23;;;;;;;;;;4945992;28;20249;-54
2023/09/16 00:50:05;;;;;;;578.73;267.80;;;;;;;;;;4935801;28;20229;-54
2023/09/16 00:52:31;;;;;;;530.43;238.93;;;;;;;;;;4953913;28;20299;-54
2023/09/16 00:54:57;;;;;;;532.40;240.67;;;;;;;;;;4956507;28;20225;-54
2023/09/16 00:57:23;;;;;;;469.40;203.80;;;;;;;;;;4952142;28;21377;-54
2023/09/16 00:59:49;;;;;;;536.47;245.40;;;;;;;;;;4951735;28;20599;-54
2023/09/16 01:02:15;;;;;;;501.57;229.40;;;;;;;;;;4940304;28;20594;-54
2023/09/16 01:04:42;;;;;;;546.50;246.37;;;;;;;;;;4940648;28;20225;-54
2023/09/16 01:07:08;;;;;;;579.23;261.93;;;;;;;;;;4951251;28;20220;-54
2023/09/16 01:09:35;;;;;;;518.97;229.07;;;;;;;;;;4959201;28;20624;-54
2023/09/16 01:12:00;;;;;;;531.80;230.67;;;;;;;;;;4937994;28;20245;-54
2023/09/16 01:14:27;;;;;;;500.77;219.17;;;;;;;;;;4970495;28;20355;-54
2023/09/16 01:17:00;;;;;;;476.70;209.20;;;;;;;;;;4962729;28;20221;-53
2023/09/16 01:19:48;;;;;;;542.10;250.47;;;;;;;;;;4942733;28;20222;-54
2023/09/16 01:22:17;;;;;;;528.73;238.07;;;;;;;;;;4953803;28;20227;-54
2023/09/16 01:24:43;;;;;;;541.10;245.33;;;;;;;;;;4954178;28;20228;-54
2023/09/16 01:27:09;;;;;;;489.17;210.93;;;;;;;;;;4949948;28;20234;-54
2023/09/16 01:29:35;;;;;;;478.67;206.07;;;;;;;;;;4957404;28;20255;-54
2023/09/16 01:32:04;;;;;;;538.67;235.70;;;;;;;;;;4951555;28;20279;-54
2023/09/16 01:34:49;;;;;;;543.23;250.97;;;;;;;;;;4953057;28;20707;-54
2023/09/16 01:37:19;;;;;;;545.63;248.97;;;;;;;;;;4944378;28;20232;-54
2023/09/16 01:39:47;;;;;;;528.20;235.30;;;;;;;;;;4957735;28;20267;-54
2023/09/16 01:42:14;;;;;;;510.03;220.67;;;;;;;;;;4957233;28;27922;-54
2023/09/16 01:44:40;;;;;;;544.60;243.50;;;;;;;;;;4954170;28;20216;-54
2023/09/16 01:47:07;;;;;;;537.60;240.33;;;;;;;;;;4941679;28;20763;-54
2023/09/16 01:49:33;;;;;;;524.67;226.83;;;;;;;;;;4946737;28;21840;-54
2023/09/16 01:51:59;;;;;;;497.00;213.60;;;;;;;;;;4965000;28;20218;-54
2023/09/16 01:54:25;;;;;;;507.80;223.03;;;;;;;;;;4946415;28;20285;-54
2023/09/16 01:56:51;;;;;;;472.23;200.03;;;;;;;;;;4942889;28;20226;-54
2023/09/16 01:59:17;;;;;;;510.57;222.60;;;;;;;;;;4938867;28;20872;-54
2023/09/16 02:01:44;;;;;;;548.70;252.17;;;;;;;;;;4954745;28;20747;-53
2023/09/16 02:04:10;;;;;;;591.63;266.00;;;;;;;;;;4938793;28;20225;-54
2023/09/16 02:06:36;;;;;;;498.33;218.47;;;;;;;;;;4956895;28;20196;-54
2023/09/16 02:09:02;;;;;;;522.93;233.97;;;;;;;;;;4942687;28;20222;-54
2023/09/16 02:11:30;;;;;;;511.40;226.00;;;;;;;;;;4944689;28;20220;-54
2023/09/16 02:13:56;;;;;;;518.97;229.17;;;;;;;;;;4957868;28;20221;-54
2023/09/16 02:16:22;;;;;;;516.10;223.80;;;;;;;;;;4947813;28;20592;-54
2023/09/16 02:18:48;;;;;;;519.63;221.47;;;;;;;;;;4942303;28;20270;-54
2023/09/16 02:21:15;;;;;;;545.30;235.40;;;;;;;;;;4951379;28;20186;-54
2023/09/16 02:23:41;;;;;;;493.13;211.37;;;;;;;;;;4960704;28;21967;-53
2023/09/16 02:26:07;;;;;;;501.53;214.77;;;;;;;;;;4960985;28;20224;-54
2023/09/16 02:28:33;;;;;;;475.30;198.73;;;;;;;;;;4966140;28;20222;-54
2023/09/16 02:30:59;;;;;;;500.80;215.83;;;;;;;;;;4950040;28;20178;-54
2023/09/16 02:33:25;;;;;;;547.47;242.83;;;;;;;;;;4952044;28;20200;-54
2023/09/16 02:35:51;;;;;;;528.47;232.90;;;;;;;;;;4938597;28;20213;-53
2023/09/16 02:38:17;;;;;;;529.53;227.83;;;;;;;;;;4940783;28;20685;-53
2023/09/16 02:40:43;;;;;;;586.73;267.50;;;;;;;;;;4952831;28;20904;-54
2023/09/16 02:43:09;;;;;;;526.63;228.80;;;;;;;;;;4956059;28;20239;-54
2023/09/16 02:45:39;;;;;;;499.27;211.37;;;;;;;;;;4945258;28;20811;-54
2023/09/16 02:48:05;;;;;;;559.47;252.57;;;;;;;;;;4940028;28;20257;-54
2023/09/16 02:50:33;;;;;;;507.83;215.70;;;;;;;;;;4955516;28;20569;-54
2023/09/16 02:52:59;;;;;;;451.93;189.50;;;;;;;;;;4953361;28;20210;-54
2023/09/16 02:55:27;;;;;;;521.63;224.83;;;;;;;;;;4952928;28;20578;-54
2023/09/16 02:57:54;;;;;;;496.03;216.17;;;;;;;;;;4931801;28;20531;-53
2023/09/16 03:00:20;;;;;;;598.63;271.07;;;;;;;;;;4942805;28;20253;-54
2023/09/16 03:02:49;;;;;;;561.20;250.53;;;;;;;;;;4936557;28;20228;-54
2023/09/16 03:05:15;;;;;;;490.90;213.60;;;;;;;;;;4944639;28;20221;-54
2023/09/16 03:07:41;;;;;;;495.77;217.53;;;;;;;;;;4949977;28;20560;-53
2023/09/16 03:10:07;;;;;;;581.47;264.40;;;;;;;;;;4951400;28;20222;-54
2023/09/16 03:12:33;;;;;;;532.53;236.03;;;;;;;;;;4953780;28;20608;-53
2023/09/16 03:14:59;;;;;;;555.03;250.97;;;;;;;;;;4954807;28;20222;-54
2023/09/16 03:17:25;;;;;;;545.07;243.07;;;;;;;;;;4944883;28;20315;-54
2023/09/16 03:19:51;;;;;;;496.47;211.20;;;;;;;;;;4952299;28;20257;-54
2023/09/16 03:22:17;;;;;;;532.50;235.70;;;;;;;;;;4956895;28;20253;-54
2023/09/16 03:24:43;;;;;;;551.40;249.57;;;;;;;;;;4941870;28;21011;-54
2023/09/16 03:27:09;;;;;;;497.20;211.83;;;;;;;;;;4951837;28;21016;-54
2023/09/16 03:29:35;;;;;;;507.30;218.57;;;;;;;;;;4948881;28;20222;-54
2023/09/16 03:32:01;;;;;;;547.53;246.20;;;;;;;;;;4956200;28;20225;-53
2023/09/16 03:34:27;;;;;;;518.07;225.87;;;;;;;;;;4953606;28;20264;-53
2023/09/16 03:36:53;;;;;;;546.23;248.17;;;;;;;;;;4953713;28;20201;-54
2023/09/16 03:39:19;;;;;;;535.60;236.90;;;;;;;;;;4959685;28;20202;-54
2023/09/16 03:41:45;;;;;;;495.47;211.57;;;;;;;;;;4952905;28;20304;-54
2023/09/16 03:44:12;;;;;;;556.23;247.43;;;;;;;;;;4951264;28;21005;-54
2023/09/16 03:46:41;;;;;;;502.43;215.70;;;;;;;;;;4952848;28;20688;-54
2023/09/16 03:49:07;;;;;;;560.00;250.10;;;;;;;;;;4938849;28;20312;-54
2023/09/16 03:51:37;;;;;;;509.20;216.40;;;;;;;;;;4946236;28;20187;-54
2023/09/16 03:54:06;;;;;;;495.00;206.47;;;;;;;;;;4957491;28;20210;-53
2023/09/16 03:56:32;;;;;;;516.87;223.40;;;;;;;;;;4952829;28;20218;-54
2023/09/16 03:58:58;;;;;;;505.13;215.43;;;;;;;;;;4957234;28;20313;-54
2023/09/16 04:01:24;;;;;;;515.43;222.37;;;;;;;;;;4958985;28;20220;-54
2023/09/16 04:03:51;;;;;;;473.07;198.73;;;;;;;;;;4949961;28;20332;-53
2023/09/16 04:06:17;;;;;;;581.77;257.17;;;;;;;;;;4946078;28;20771;-54
2023/09/16 04:08:43;;;;;;;454.37;186.13;;;;;;;;;;4951906;28;20241;-54
2023/09/16 04:11:09;;;;;;;464.37;195.67;;;;;;;;;;4975910;23;23689;-73
2023/09/16 04:13:35;;;;;;;508.70;224.03;;;;;;;;;;4995050;28;20229;-71
2023/09/16 04:16:01;;;;;;;473.07;198.07;;;;;;;;;;4987118;28;20188;-73
2023/09/16 04:18:29;;;;;;;468.30;195.80;;;;;;;;;;4985697;28;20202;-72
2023/09/16 04:20:55;;;;;;;462.17;193.70;;;;;;;;;;4960627;28;20687;-70
2023/09/16 04:23:21;;;;;;;467.87;200.87;;;;;;;;;;4980584;28;20229;-71
2023/09/16 04:25:47;;;;;;;512.90;227.57;;;;;;;;;;4978857;28;20217;-71
2023/09/16 04:28:15;;;;;;;476.50;201.50;;;;;;;;;;4961945;28;20221;-71
2023/09/16 04:30:48;;;;;;;459.17;186.40;;;;;;;;;;4977704;28;20306;-70
2023/09/16 04:33:14;;;;;;;469.20;200.10;;;;;;;;;;4966716;28;20753;-71
2023/09/16 04:35:45;;;;;;;464.07;194.93;;;;;;;;;;4954629;28;20211;-71
2023/09/16 04:38:11;;;;;;;486.17;208.53;;;;;;;;;;4976807;28;20313;-71
2023/09/16 04:40:38;;;;;;;518.80;224.10;;;;;;;;;;4956469;28;20217;-71
2023/09/16 04:43:04;;;;;;;472.17;196.43;;;;;;;;;;4964358;28;20308;-71
2023/09/16 04:45:31;;;;;;;500.20;215.97;;;;;;;;;;4964345;28;20226;-72
2023/09/16 04:47:57;;;;;;;482.57;203.00;;;;;;;;;;4980475;28;20213;-71
2023/09/16 04:50:23;;;;;;;517.50;226.37;;;;;;;;;;4974666;28;20231;-70
2023/09/16 04:52:50;;;;;;;505.70;220.73;;;;;;;;;;4960167;28;20312;-71
2023/09/16 04:55:16;;;;;;;502.63;218.83;;;;;;;;;;4977761;28;20220;-71
2023/09/16 04:57:41;;;;;;;441.97;181.67;;;;;;;;;;4984620;28;21023;-72
2023/09/16 05:00:08;;;;;;;472.27;201.03;;;;;;;;;;4980095;28;20217;-70
2023/09/16 05:02:34;;;;;;;479.20;198.97;;;;;;;;;;4963611;28;20220;-70
2023/09/16 05:05:00;;;;;;;474.97;200.00;;;;;;;;;;4977995;28;20303;-70
2023/09/16 05:07:26;;;;;;;485.20;202.37;;;;;;;;;;4985041;28;20279;-71
2023/09/16 05:09:52;;;;;;;495.43;208.93;;;;;;;;;;4975995;28;20193;-71
2023/09/16 05:12:18;;;;;;;502.23;213.27;;;;;;;;;;4953421;28;20629;-71
2023/09/16 05:14:46;;;;;;;472.63;195.97;;;;;;;;;;4977860;28;20212;-71
2023/09/16 05:17:11;;;;;;;486.67;202.73;;;;;;;;;;4980742;28;20225;-72
2023/09/16 05:19:37;;;;;;;464.17;194.00;;;;;;;;;;4971393;28;20700;-72
2023/09/16 05:22:04;;;;;;;436.83;178.83;;;;;;;;;;4982253;28;20200;-72
2023/09/16 05:24:33;;;;;;;489.27;209.03;;;;;;;;;;4977969;28;20209;-72
2023/09/16 05:26:59;;;;;;;440.20;183.07;;;;;;;;;;4979110;28;20214;-72
2023/09/16 05:29:25;;;;;;;499.93;217.03;;;;;;;;;;4959863;28;20236;-72
2023/09/16 05:31:53;;;;;;;456.93;194.23;;;;;;;;;;4975333;28;20572;-72
2023/09/16 05:34:19;;;;;;;510.80;224.87;;;;;;;;;;4958138;28;20745;-72
2023/09/16 05:36:45;;;;;;;424.73;175.33;;;;;;;;;;4976736;28;20213;-72
2023/09/16 05:39:11;;;;;;;451.40;190.03;;;;;;;;;;4979216;28;20224;-73
2023/09/16 05:41:37;;;;;;;450.17;191.30;;;;;;;;;;4976653;28;20214;-72
2023/09/16 05:44:03;;;;;;;439.30;182.23;;;;;;;;;;4978787;28;20282;-71
2023/09/16 05:46:29;;;;;;;490.93;214.53;;;;;;;;;;4979049;28;20770;-72
2023/09/16 05:49:06;;;;;;;451.67;190.40;;;;;;;;;;4985386;28;20185;-71
2023/09/16 05:51:32;;;;;;;469.40;202.80;;;;;;;;;;4976789;28;20250;-72
2023/09/16 05:53:58;;;;;;;492.97;215.63;;;;;;;;;;4974235;28;20225;-72
2023/09/16 05:56:24;;;;;;;494.13;214.37;;;;;;;;;;4957240;28;20287;-75
2023/09/16 05:58:50;;;;;;;457.63;197.43;;;;;;;;;;4976276;28;20544;-74
2023/09/16 06:01:16;;;;;;;481.70;211.43;;;;;;;;;;4957770;28;20271;-78
2023/09/16 06:03:42;;;;;;;482.10;205.37;;;;;;;;;;4974359;28;20280;-77
2023/09/16 06:06:08;;;;;;;474.03;199.73;;;;;;;;;;4975326;28;20205;-75
2023/09/16 06:08:34;;;;;;;490.07;211.53;;;;;;;;;;4972833;28;20221;-77
2023/09/16 06:10:59;;;;;;;463.80;197.87;;;;;;;;;;4974546;28;20885;-77
2023/09/16 06:13:26;;;;;;;480.80;212.10;;;;;;;;;;4974004;28;20799;-75
2023/09/16 06:15:52;;;;;;;432.03;184.50;;;;;;;;;;4963412;28;20544;-75
2023/09/16 06:18:17;;;;;;;480.23;209.73;;;;;;;;;;4974551;28;20216;-77
2023/09/16 06:20:43;;;;;;;526.60;238.70;;;;;;;;;;4945024;28;20228;-76
2023/09/16 06:23:09;;;;;;;509.23;228.47;;;;;;;;;;4951030;28;20225;-76
2023/09/16 06:25:36;;;;;;;529.50;237.10;;;;;;;;;;4972561;28;20213;-76
2023/09/16 06:28:03;;;;;;;481.70;210.10;;;;;;;;;;4980233;28;20236;-76
2023/09/16 06:30:29;;;;;;;495.53;220.23;;;;;;;;;;4954038;28;20652;-76
2023/09/16 06:32:57;;;;;;;427.87;182.27;;;;;;;;;;4957293;28;20228;-75
2023/09/16 06:35:23;;;;;;;492.17;214.17;;;;;;;;;;4974049;28;20209;-75
2023/09/16 06:37:50;;;;;;;486.63;213.77;;;;;;;;;;4971982;28;21171;-76
2023/09/16 06:40:17;;;;;;;486.10;213.23;;;;;;;;;;4976199;28;20232;-77
2023/09/16 06:42:43;;;;;;;481.07;210.87;;;;;;;;;;4971629;28;20213;-75
2023/09/16 06:45:09;;;;;;;491.87;217.47;;;;;;;;;;4958932;28;20221;-75
2023/09/16 06:47:35;;;;;;;505.87;224.53;;;;;;;;;;4975849;28;20309;-75
2023/09/16 06:50:01;;;;;;;482.63;212.13;;;;;;;;;;4961835;28;20209;-76
2023/09/16 06:52:27;;;;;;;493.83;222.57;;;;;;;;;;4960962;28;20229;-76
2023/09/16 06:54:54;;;;;;;471.03;210.70;;;;;;;;;;4976746;28;20654;-75
2023/09/16 06:57:19;;;;;;;465.27;203.53;;;;;;;;;;4970897;28;20288;-75
2023/09/16 06:59:49;;;;;;;485.90;223.20;;;;;;;;;;4967389;28;20216;-76
2023/09/16 07:02:15;;;;;;;508.97;231.37;;;;;;;;;;4956850;28;20328;-74
2023/09/16 07:04:42;;;;;;;495.73;221.67;;;;;;;;;;4975089;28;20236;-74
2023/09/16 07:07:11;;;;;;;485.67;218.43;;;;;;;;;;4958814;28;20228;-77
2023/09/16 07:09:37;;;;;;;513.57;234.80;;;;;;;;;;4970637;28;20188;-74
2023/09/16 07:12:05;;;;;;;465.33;207.00;;;;;;;;;;4978175;28;20217;-71
2023/09/16 07:14:30;;;;;;;451.10;205.93;;;;;;;;;;4982881;28;20263;-77
2023/09/16 07:16:57;;;;;;;456.20;204.60;;;;;;;;;;4980090;28;20225;-79
2023/09/16 07:19:23;;;;;;;483.50;228.10;;;;;;;;;;4978179;28;20217;-75
2023/09/16 07:21:49;;;;;;;482.83;222.93;;;;;;;;;;4986052;28;20193;-82
2023/09/16 07:24:14;;;;;;;460.97;207.47;;;;;;;;;;4984686;28;20271;-76
2023/09/16 07:26:43;;;;;;;516.07;236.23;;;;;;;;;;4975066;28;20252;-77
2023/09/16 07:29:09;;;;;;;472.80;219.93;;;;;;;;;;4977356;28;20324;-78
2023/09/16 07:31:35;;;;;;;518.37;250.43;;;;;;;;;;4980938;28;20236;-75
2023/09/16 07:34:01;;;;;;;435.97;199.77;;;;;;;;;;4965432;28;20755;-78
2023/09/16 07:36:27;;;;;;;458.80;209.83;;;;;;;;;;4988305;28;20205;-76
2023/09/16 07:38:53;;;;;;;463.67;214.13;;;;;;;;;;4982446;28;20867;-79
2023/09/16 07:41:19;;;;;;;501.60;237.70;;;;;;;;;;4967236;28;20256;-79
2023/09/16 07:43:45;;;;;;;488.17;236.93;;;;;;;;;;4983571;28;20578;-75
2023/09/16 07:46:11;;;;;;;469.47;217.83;;;;;;;;;;4959869;28;20229;-70
2023/09/16 07:48:37;;;;;;;506.70;251.13;;;;;;;;;;4970968;28;20233;-75
2023/09/16 07:51:03;;;;;;;475.33;230.73;;;;;;;;;;4979675;28;20299;-63
2023/09/16 07:53:29;;;;;;;477.47;236.40;;;;;;;;;;4972997;28;20213;-63
2023/09/16 07:55:54;;;;;;;529.40;260.97;;;;;;;;;;4972850;28;20935;-63
2023/09/16 07:58:20;;;;;;;440.30;208.93;;;;;;;;;;4977104;28;20296;-63
2023/09/16 08:00:46;;;;;;;464.50;223.83;;;;;;;;;;4978308;28;22369;-62
2023/09/16 08:03:12;;;;;;;486.47;237.07;;;;;;;;;;4973383;28;20212;-63
2023/09/16 08:05:38;;;;;;;484.80;241.13;;;;;;;;;;4973062;28;20209;-77
2023/09/16 08:08:04;;;;;;;496.13;244.13;;;;;;;;;;4958854;28;20221;-75
2023/09/16 08:10:30;;;;;;;481.07;239.93;;;;;;;;;;4976252;28;20217;-78
2023/09/16 08:12:56;;;;;;;487.47;240.50;;;;;;;;;;4979886;28;20190;-76
2023/09/16 08:15:23;;;;;;;502.90;249.30;;;;;;;;;;4963286;28;20177;-78
2023/09/16 08:17:49;;;;;;;502.10;253.30;;;;;;;;;;4958607;28;20217;-74
2023/09/16 08:20:18;;;;;;;463.77;229.87;;;;;;;;;;4974231;28;20228;-75
2023/09/16 08:22:44;;;;;;;490.77;247.63;;;;;;;;;;4963583;28;20983;-77
2023/09/16 08:25:10;;;;;;;514.20;261.93;;;;;;;;;;4955537;28;20311;-76
2023/09/16 08:27:36;;;;;;;486.10;241.33;;;;;;;;;;4956625;28;20197;-77
2023/09/16 08:30:02;;;;;;;473.10;236.43;;;;;;;;;;4975553;28;20303;-75
2023/09/16 08:32:31;;;;;;;392.37;201.23;;;;;;;;;;4990426;28;20304;-74
2023/09/16 08:34:57;;;;;;;393.90;202.30;;;;;;;;;;4989217;28;20200;-75
2023/09/16 08:37:23;;;;;;;393.73;203.57;;;;;;;;;;5002738;28;20323;-70
2023/09/16 08:39:49;;;;;;;393.20;204.83;;;;;;;;;;5004913;28;20188;-70
2023/09/16 08:42:23;;;;;;;391.10;206.77;;;;;;;;;;4997076;28;20181;-71
2023/09/16 08:44:51;;;;;;;414.17;214.77;;;;;;;;;;5004711;28;20220;-71
2023/09/16 08:47:21;;;;;;;394.83;208.00;;;;;;;;;;4999127;28;20210;-71
2023/09/16 08:49:52;;;;;;;433.90;231.00;;;;;;;;;;5001397;28;20209;-71
2023/09/16 08:52:20;;;;;;;412.60;221.70;;;;;;;;;;4984622;28;20627;-71
2023/09/16 08:54:48;;;;;;;418.57;219.77;;;;;;;;;;4986230;28;20193;-71
2023/09/16 08:57:14;;;;;;;395.37;208.60;;;;;;;;;;5004233;28;20196;-71
2023/09/16 08:59:40;;;;;;;411.43;219.47;;;;;;;;;;4998711;28;20913;-72
2023/09/16 09:02:08;;;;;;;395.07;212.10;;;;;;;;;;4979696;28;20205;-72
2023/09/16 09:04:35;;;;;;;394.80;206.47;;;;;;;;;;4973620;28;20990;-72
2023/09/16 09:07:01;;;;;;;390.90;207.37;;;;;;;;;;5001136;28;20209;-71
2023/09/16 09:09:28;;;;;;;436.93;235.57;;;;;;;;;;4991819;28;20185;-72
2023/09/16 09:11:55;;;;;;;419.47;225.20;;;;;;;;;;4993194;28;20630;-72
2023/09/16 09:14:23;;;;;;;387.27;209.63;;;;;;;;;;5003774;28;20209;-75
2023/09/16 09:16:49;;;;;;;413.23;219.57;;;;;;;;;;4995851;28;20335;-72
2023/09/16 09:19:15;;;;;;;400.40;216.87;;;;;;;;;;4996577;28;20232;-72
2023/09/16 09:21:42;;;;;;;412.97;224.77;;;;;;;;;;5003183;28;20243;-72
2023/09/16 09:24:08;;;;;;;389.50;210.03;;;;;;;;;;5004540;28;20213;-72
2023/09/16 09:26:34;;;;;;;402.57;219.83;;;;;;;;;;5002546;28;20224;-72
2023/09/16 09:29:00;;;;;;;393.53;217.20;;;;;;;;;;4999219;28;20216;-70
2023/09/16 09:31:26;;;;;;;406.53;218.87;;;;;;;;;;5000812;28;20217;-72
2023/09/16 09:33:53;;;;;;;473.67;262.63;;;;;;;;;;5001385;28;20177;-72
2023/09/16 09:36:19;;;;;;;398.33;218.83;;;;;;;;;;4983827;28;20259;-72
2023/09/16 09:38:46;;;;;;;407.13;223.27;;;;;;;;;;4999235;28;20717;-72
2023/09/16 09:41:12;;;;;;;398.73;226.57;;;;;;;;;;5002942;28;20216;-72
2023/09/16 09:43:38;;;;;;;403.13;221.50;;;;;;;;;;5000743;28;20225;-73
2023/09/16 09:46:05;;;;;;;388.40;213.33;;;;;;;;;;4984679;28;20282;-71
2023/09/16 09:48:32;;;;;;;417.53;230.97;;;;;;;;;;4993854;28;20259;-75
2023/09/16 09:50:58;;;;;;;398.87;222.20;;;;;;;;;;4986240;28;20741;-73
2023/09/16 09:53:24;;;;;;;389.40;214.93;;;;;;;;;;4995855;28;20223;-71
2023/09/16 09:55:50;;;;;;;436.10;247.03;;;;;;;;;;4996397;28;20379;-72
2023/09/16 09:58:18;;;;;;;396.77;225.50;;;;;;;;;;4991299;28;20217;-72
2023/09/16 10:00:47;;;;;;;410.27;235.27;;;;;;;;;;5004181;28;20643;-73
2023/09/16 10:03:14;;;;;;;391.40;224.00;;;;;;;;;;4978017;28;20233;-72
2023/09/16 10:05:40;;;;;;;408.07;235.07;;;;;;;;;;4999813;28;20248;-72
2023/09/16 10:08:06;;;;;;;397.57;227.03;;;;;;;;;;5004228;28;20248;-72
2023/09/16 10:10:32;;;;;;;453.07;263.43;;;;;;;;;;4982419;28;20299;-72
2023/09/16 10:12:58;;;;;;;423.13;248.63;;;;;;;;;;5000608;28;20193;-72
2023/09/16 10:15:25;;;;;;;398.23;234.27;;;;;;;;;;4999187;28;20184;-72
2023/09/16 10:17:51;;;;;;;432.57;256.77;;;;;;;;;;4976288;28;20959;-72
2023/09/16 10:20:17;;;;;;;565.00;315.50;;;;;;;;;;4954918;28;20803;-72
2023/09/16 10:22:43;;;;;;;502.47;283.93;;;;;;;;;;4975555;28;20214;-72
2023/09/16 10:25:11;;;;;;;474.43;265.50;;;;;;;;;;4978926;28;20217;-73
2023/09/16 10:27:40;;;;;;;408.70;247.87;;;;;;;;;;4959043;28;20202;-73
2023/09/16 10:30:06;;;;;;;413.13;252.23;;;;;;;;;;4984500;28;20523;-72
2023/09/16 10:32:33;;;;;;;403.87;248.10;;;;;;;;;;4965144;28;20208;-72
2023/09/16 10:35:01;;;;;;;399.70;245.97;;;;;;;;;;4983616;28;20218;-72
2023/09/16 10:37:27;;;;;;;408.27;254.93;;;;;;;;;;4966655;28;20229;-72
2023/09/16 10:39:54;;;;;;;415.73;253.53;;;;;;;;;;4983991;28;20178;-72
2023/09/16 10:42:20;;;;;;;406.17;251.17;;;;;;;;;;4978865;28;20181;-73
2023/09/16 10:44:47;;;;;;;403.43;248.90;;;;;;;;;;4965868;28;20326;-72
2023/09/16 10:47:13;;;;;;;425.50;264.13;;;;;;;;;;4982886;28;20588;-73
2023/09/16 10:49:39;;;;;;;426.90;263.63;;;;;;;;;;4977825;28;20221;-73
2023/09/16 10:52:09;;;;;;;419.47;263.33;;;;;;;;;;4983030;28;20260;-72
2023/09/16 10:55:01;;;;;;;422.40;268.63;;;;;;;;;;4984099;28;20182;-73
2023/09/16 10:57:31;;;;;;;428.83;266.10;;;;;;;;;;4972581;28;20232;-72
2023/09/16 10:59:58;;;;;;;425.57;265.63;;;;;;;;;;4963913;28;20237;-73
2023/09/16 11:02:32;;;;;;;434.00;272.10;;;;;;;;;;4982717;28;20692;-73
2023/09/16 11:04:59;;;;;;;427.47;268.90;;;;;;;;;;4981343;28;20865;-72
2023/09/16 11:07:24;;;;;;;407.57;265.17;;;;;;;;;;4965830;28;20209;-72
2023/09/16 11:09:53;;;;;;;420.40;277.50;;;;;;;;;;4965580;28;20742;-72
2023/09/16 11:12:19;;;;;;;515.83;315.37;;;;;;;;;;4965946;28;20335;-71
2023/09/16 11:14:45;;;;;;;551.63;344.80;;;;;;;;;;4946555;28;20223;-72
2023/09/16 11:17:14;;;;;;;485.87;305.00;;;;;;;;;;4975679;28;20348;-76
2023/09/16 11:19:40;;;;;;;528.83;329.37;;;;;;;;;;4953179;28;20205;-76
2023/09/16 11:22:07;;;;;;;484.17;305.20;;;;;;;;;;4956452;28;20587;-76
2023/09/16 11:24:36;;;;;;;497.33;323.40;;;;;;;;;;4971067;28;20575;-76
2023/09/16 11:27:03;;;;;;;531.73;340.47;;;;;;;;;;4974309;28;20311;-76
2023/09/16 11:29:31;;;;;;;503.40;324.10;;;;;;;;;;4980559;28;20222;-76
2023/09/16 11:31:57;;;;;;;512.80;328.80;;;;;;;;;;4958563;28;20248;-78
2023/09/16 11:34:24;;;;;;;491.03;328.27;;;;;;;;;;4958194;28;20641;-75
2023/09/16 11:37:01;;;;;;;544.67;338.77;;;;;;;;;;4957647;28;20217;-75
2023/09/16 11:39:40;;;;;;;518.37;333.83;;;;;;;;;;4951777;28;20177;-75
2023/09/16 11:42:08;;;;;;;498.43;331.27;;;;;;;;;;4953573;28;20866;-76
2023/09/16 11:44:38;;;;;;;478.03;321.30;;;;;;;;;;4968197;28;20252;-74
2023/09/16 11:47:05;;;;;;;574.17;371.17;;;;;;;;;;4954096;28;22700;-76
2023/09/16 11:49:34;;;;;;;490.53;326.20;;;;;;;;;;4979371;28;20221;-76
2023/09/16 11:52:00;;;;;;;526.23;346.87;;;;;;;;;;4982141;28;20186;-75
2023/09/16 11:54:26;;;;;;;563.97;377.60;;;;;;;;;;4955871;28;20686;-76
2023/09/16 11:56:53;;;;;;;548.13;359.77;;;;;;;;;;4967535;28;20652;-76
2023/09/16 11:59:19;;;;;;;496.43;340.97;;;;;;;;;;4978613;28;20255;-77
2023/09/16 12:01:45;;;;;;;460.70;326.57;;;;;;;;;;4971730;28;20300;-76
2023/09/16 12:04:15;;;;;;;518.87;348.80;;;;;;;;;;4957273;28;20240;-77
2023/09/16 12:06:41;;;;;;;495.80;345.97;;;;;;;;;;4961913;28;20209;-77
2023/09/16 12:09:08;;;;;;;518.50;350.57;;;;;;;;;;4959096;28;20217;-76
2023/09/16 12:11:35;;;;;;;517.77;353.97;;;;;;;;;;4969099;28;20902;-76
2023/09/16 12:14:03;;;;;;;546.57;372.07;;;;;;;;;;4959497;28;20222;-77
2023/09/16 12:16:29;;;;;;;482.23;332.40;;;;;;;;;;4962770;28;20229;-77
2023/09/16 12:18:55;;;;;;;490.37;347.93;;;;;;;;;;4963308;28;20217;-77
2023/09/16 12:21:21;;;;;;;484.37;353.17;;;;;;;;;;4975526;28;20394;-77
2023/09/16 12:23:49;;;;;;;487.30;350.83;;;;;;;;;;4964473;28;20229;-77
2023/09/16 12:26:15;;;;;;;488.93;348.60;;;;;;;;;;4976628;28;20241;-77
2023/09/16 12:28:41;;;;;;;589.60;407.33;;;;;;;;;;4960870;28;22229;-74
2023/09/16 12:31:09;;;;;;;515.50;366.50;;;;;;;;;;4950075;28;20220;-77
2023/09/16 12:33:39;;;;;;;522.03;361.07;;;;;;;;;;4963429;28;20207;-76
2023/09/16 12:36:05;;;;;;;536.10;380.43;;;;;;;;;;4950833;28;20255;-77
2023/09/16 12:38:32;;;;;;;490.90;357.10;;;;;;;;;;4955085;28;20224;-76
2023/09/16 12:40:58;;;;;;;572.63;399.77;;;;;;;;;;4972035;28;20252;-76
2023/09/16 12:43:24;;;;;;;496.57;361.10;;;;;;;;;;4964584;28;20304;-77
2023/09/16 12:45:50;;;;;;;569.00;406.63;;;;;;;;;;4951485;28;20213;-73
2023/09/16 12:48:16;;;;;;;516.70;372.73;;;;;;;;;;4958855;28;20291;-77
2023/09/16 12:50:42;;;;;;;479.43;344.90;;;;;;;;;;4974713;28;20395;-77
2023/09/16 12:53:08;;;;;;;529.27;376.27;;;;;;;;;;4944598;28;20666;-75
2023/09/16 12:55:34;;;;;;;585.70;412.13;;;;;;;;;;4953026;28;20224;-76
2023/09/16 12:58:00;;;;;;;523.57;376.63;;;;;;;;;;4969555;28;20206;-76
2023/09/16 13:00:26;;;;;;;522.40;376.90;;;;;;;;;;4970617;28;20173;-76
2023/09/16 13:02:53;;;;;;;522.53;386.90;;;;;;;;;;4975373;28;21135;-76
2023/09/16 13:05:20;;;;;;;523.27;380.00;;;;;;;;;;4959575;28;20632;-79
2023/09/16 13:07:49;;;;;;;570.60;410.13;;;;;;;;;;4972373;28;20339;-76
2023/09/16 13:10:16;;;;;;;492.67;372.70;;;;;;;;;;4977072;28;20473;-76
2023/09/16 13:12:43;;;;;;;534.20;389.60;;;;;;;;;;4970769;28;20185;-76
2023/09/16 13:15:21;;;;;;;534.60;393.70;;;;;;;;;;4951209;28;20664;-76
2023/09/16 13:17:49;;;;;;;559.47;407.17;;;;;;;;;;4972755;28;20217;-76
2023/09/16 13:20:15;;;;;;;498.60;378.67;;;;;;;;;;4950356;28;20225;-78
2023/09/16 13:22:42;;;;;;;553.17;404.20;;;;;;;;;;4963545;28;20291;-79
2023/09/16 13:25:26;;;;;;;590.27;427.73;;;;;;;;;;4979475;28;20220;-77
2023/09/16 13:27:52;;;;;;;523.00;386.63;;;;;;;;;;4977403;28;20772;-77
2023/09/16 13:30:20;;;;;;;529.00;408.40;;;;;;;;;;4974038;28;20185;-76
2023/09/16 13:32:53;;;;;;;503.73;383.77;;;;;;;;;;4976238;28;20256;-77
2023/09/16 13:35:22;;;;;;;491.27;392.20;;;;;;;;;;4955791;28;20687;-76
2023/09/16 13:37:48;;;;;;;526.30;408.53;;;;;;;;;;4974873;28;20274;-80
2023/09/16 13:40:15;;;;;;;559.20;435.80;;;;;;;;;;4976473;28;20211;-77
2023/09/16 13:42:42;;;;;;;508.20;408.37;;;;;;;;;;4958343;28;20283;-77
2023/09/16 13:45:08;;;;;;;553.33;464.13;;;;;;;;;;4961046;28;20216;-77
2023/09/16 13:47:34;;;;;;;542.37;452.17;;;;;;;;;;4962252;28;20229;-80
2023/09/16 13:50:00;;;;;;;580.35;491.52;;;;;;;;;;4949485;28;20209;-79